aviador You're here:

K2W6 Decoded Metar

CAPT DUKE RGNL in MD, USA
Report Time2017-08-22 01:37:00
UTC Time2017-08-22 01:42:04
Flight Rules vfr VFR
WindCalm
Visibility9999 m
Phenomena:N/A
Clouds:Scattered 060 Hf
Expected CloudBase > 400 ft AGL from Temp-Dew spread
CeilingNone
Temp23°C (ISA +8)
Dew Point22°C (94% RH)
QNH1021 hPa
Density Alt1,188 ft
Elevation144 ft
Report Wrong Elevation
Raw Report
K2W6 220137Z AUTO 00000KT 10SM SCT060 23/22 A3016 RMK AO1=

Extra information for K2W6:More info

Metar Taf Metar & Taf Last 4 Metars F.Rules Stats Wind Profile Meteogram Temp Stats Airport Information Weather charts Add Link Nearby VenuesMetar ALERT Operation Metar Decoded Social comments

AIRNAV info for K2W6